sensor_id;sensor_type;location;lat;lon;timestamp;P1;durP1;ratioP1;P2;durP2;ratioP2
27857;SDS011;16852;51.446;6.528;2022-09-09T00:00:19;2.13;;;0.50;;
27857;SDS011;16852;51.446;6.528;2022-09-09T00:02:22;0.20;;;0.20;;
27857;SDS011;16852;51.446;6.528;2022-09-09T00:04:30;0.47;;;0.20;;
27857;SDS011;16852;51.446;6.528;2022-09-09T00:06:43;0.52;;;0.30;;
27857;SDS011;16852;51.446;6.528;2022-09-09T00:09:16;1.70;;;0.68;;
27857;SDS011;16852;51.446;6.528;2022-09-09T00:11:20;3.03;;;1.05;;
27857;SDS011;16852;51.446;6.528;2022-09-09T00:13:37;2.45;;;0.90;;
27857;SDS011;16852;51.446;6.528;2022-09-09T00:16:09;1.80;;;0.73;;
27857;SDS011;16852;51.446;6.528;2022-09-09T00:22:55;2.65;;;1.08;;
27857;SDS011;16852;51.446;6.528;2022-09-09T00:25:14;1.80;;;0.80;;
27857;SDS011;16852;51.446;6.528;2022-09-09T00:27:41;1.23;;;0.47;;
27857;SDS011;16852;51.446;6.528;2022-09-09T00:32:00;0.80;;;0.50;;
27857;SDS011;16852;51.446;6.528;2022-09-09T00:36:21;1.20;;;0.43;;
27857;SDS011;16852;51.446;6.528;2022-09-09T00:38:28;1.02;;;0.38;;
27857;SDS011;16852;51.446;6.528;2022-09-09T00:40:32;1.10;;;0.40;;
27857;SDS011;16852;51.446;6.528;2022-09-09T00:42:38;1.67;;;0.38;;
27857;SDS011;16852;51.446;6.528;2022-09-09T00:44:50;0.90;;;0.40;;
27857;SDS011;16852;51.446;6.528;2022-09-09T00:46:56;2.95;;;0.60;;
27857;SDS011;16852;51.446;6.528;2022-09-09T00:49:49;1.95;;;0.90;;
27857;SDS011;16852;51.446;6.528;2022-09-09T00:54:23;2.33;;;0.98;;
27857;SDS011;16852;51.446;6.528;2022-09-09T00:56:37;1.63;;;0.63;;
27857;SDS011;16852;51.446;6.528;2022-09-09T00:58:43;0.85;;;0.60;;
27857;SDS011;16852;51.446;6.528;2022-09-09T01:01:13;1.02;;;0.57;;
27857;SDS011;16852;51.446;6.528;2022-09-09T01:07:34;2.03;;;0.60;;
27857;SDS011;16852;51.446;6.528;2022-09-09T01:16:36;2.50;;;0.80;;
27857;SDS011;16852;51.446;6.528;2022-09-09T01:18:39;0.68;;;0.50;;
27857;SDS011;16852;51.446;6.528;2022-09-09T01:27:09;1.40;;;0.45;;
27857;SDS011;16852;51.446;6.528;2022-09-09T01:29:12;1.17;;;0.50;;
27857;SDS011;16852;51.446;6.528;2022-09-09T01:31:17;1.85;;;0.80;;
27857;SDS011;16852;51.446;6.528;2022-09-09T01:33:32;2.28;;;0.65;;
27857;SDS011;16852;51.446;6.528;2022-09-09T01:37:48;1.88;;;0.93;;
27857;SDS011;16852;51.446;6.528;2022-09-09T01:39:49;3.17;;;0.98;;
27857;SDS011;16852;51.446;6.528;2022-09-09T01:41:49;3.38;;;1.30;;
27857;SDS011;16852;51.446;6.528;2022-09-09T01:43:50;5.18;;;1.70;;
27857;SDS011;16852;51.446;6.528;2022-09-09T01:45:53;3.60;;;1.42;;
27857;SDS011;16852;51.446;6.528;2022-09-09T01:49:56;4.40;;;1.83;;
27857;SDS011;16852;51.446;6.528;2022-09-09T01:51:58;4.73;;;1.67;;
27857;SDS011;16852;51.446;6.528;2022-09-09T01:53:59;3.40;;;1.48;;
27857;SDS011;16852;51.446;6.528;2022-09-09T01:58:31;3.45;;;1.65;;
27857;SDS011;16852;51.446;6.528;2022-09-09T02:03:27;2.92;;;1.33;;
27857;SDS011;16852;51.446;6.528;2022-09-09T02:05:41;4.65;;;1.80;;
27857;SDS011;16852;51.446;6.528;2022-09-09T02:08:06;3.15;;;1.73;;
27857;SDS011;16852;51.446;6.528;2022-09-09T02:10:10;3.75;;;1.98;;
27857;SDS011;16852;51.446;6.528;2022-09-09T02:12:20;3.42;;;1.60;;
27857;SDS011;16852;51.446;6.528;2022-09-09T02:14:24;3.80;;;1.70;;
27857;SDS011;16852;51.446;6.528;2022-09-09T02:18:55;2.72;;;1.20;;
27857;SDS011;16852;51.446;6.528;2022-09-09T02:21:01;1.67;;;0.90;;
27857;SDS011;16852;51.446;6.528;2022-09-09T02:23:03;2.90;;;1.23;;
27857;SDS011;16852;51.446;6.528;2022-09-09T02:25:06;1.80;;;0.80;;
27857;SDS011;16852;51.446;6.528;2022-09-09T02:27:10;2.05;;;0.68;;
27857;SDS011;16852;51.446;6.528;2022-09-09T02:29:13;2.28;;;1.00;;
27857;SDS011;16852;51.446;6.528;2022-09-09T02:31:19;1.58;;;1.10;;
27857;SDS011;16852;51.446;6.528;2022-09-09T02:33:23;1.95;;;1.13;;
27857;SDS011;16852;51.446;6.528;2022-09-09T02:35:26;3.42;;;1.20;;
27857;SDS011;16852;51.446;6.528;2022-09-09T02:37:32;2.35;;;1.20;;
27857;SDS011;16852;51.446;6.528;2022-09-09T02:39:38;2.42;;;1.00;;
27857;SDS011;16852;51.446;6.528;2022-09-09T02:41:40;2.75;;;1.05;;
27857;SDS011;16852;51.446;6.528;2022-09-09T02:43:42;2.03;;;0.85;;
27857;SDS011;16852;51.446;6.528;2022-09-09T02:45:45;1.77;;;0.63;;
27857;SDS011;16852;51.446;6.528;2022-09-09T02:48:18;3.95;;;1.30;;
27857;SDS011;16852;51.446;6.528;2022-09-09T02:50:32;1.92;;;0.98;;
27857;SDS011;16852;51.446;6.528;2022-09-09T02:52:44;1.67;;;0.68;;
27857;SDS011;16852;51.446;6.528;2022-09-09T02:55:05;2.58;;;1.02;;
27857;SDS011;16852;51.446;6.528;2022-09-09T02:57:13;1.02;;;0.80;;
27857;SDS011;16852;51.446;6.528;2022-09-09T02:59:36;1.95;;;0.98;;
27857;SDS011;16852;51.446;6.528;2022-09-09T03:01:36;2.63;;;0.98;;
27857;SDS011;16852;51.446;6.528;2022-09-09T03:03:40;5.45;;;1.15;;
27857;SDS011;16852;51.446;6.528;2022-09-09T03:05:42;5.55;;;1.17;;
27857;SDS011;16852;51.446;6.528;2022-09-09T03:07:44;2.55;;;1.10;;
27857;SDS011;16852;51.446;6.528;2022-09-09T03:09:44;3.55;;;1.08;;
27857;SDS011;16852;51.446;6.528;2022-09-09T03:11:45;2.85;;;1.27;;
27857;SDS011;16852;51.446;6.528;2022-09-09T03:13:46;1.95;;;0.75;;
27857;SDS011;16852;51.446;6.528;2022-09-09T03:15:47;3.72;;;1.10;;
27857;SDS011;16852;51.446;6.528;2022-09-09T03:17:48;2.97;;;1.00;;
27857;SDS011;16852;51.446;6.528;2022-09-09T03:19:49;6.07;;;1.20;;
27857;SDS011;16852;51.446;6.528;2022-09-09T03:21:50;2.67;;;0.93;;
27857;SDS011;16852;51.446;6.528;2022-09-09T03:23:51;2.08;;;0.90;;
27857;SDS011;16852;51.446;6.528;2022-09-09T03:25:51;1.35;;;0.65;;
27857;SDS011;16852;51.446;6.528;2022-09-09T03:27:53;2.80;;;0.80;;
27857;SDS011;16852;51.446;6.528;2022-09-09T03:29:55;1.17;;;0.65;;
27857;SDS011;16852;51.446;6.528;2022-09-09T03:31:55;3.33;;;0.90;;
27857;SDS011;16852;51.446;6.528;2022-09-09T03:33:57;2.05;;;0.95;;
27857;SDS011;16852;51.446;6.528;2022-09-09T03:35:58;3.40;;;1.20;;
27857;SDS011;16852;51.446;6.528;2022-09-09T03:37:58;2.70;;;0.68;;
27857;SDS011;16852;51.446;6.528;2022-09-09T03:40:00;3.08;;;1.08;;
27857;SDS011;16852;51.446;6.528;2022-09-09T03:42:01;3.28;;;1.20;;
27857;SDS011;16852;51.446;6.528;2022-09-09T03:44:03;3.17;;;0.77;;
27857;SDS011;16852;51.446;6.528;2022-09-09T03:46:04;6.28;;;1.15;;
27857;SDS011;16852;51.446;6.528;2022-09-09T03:48:05;3.55;;;1.13;;
27857;SDS011;16852;51.446;6.528;2022-09-09T03:50:06;3.28;;;0.73;;
27857;SDS011;16852;51.446;6.528;2022-09-09T03:52:09;1.35;;;0.70;;
27857;SDS011;16852;51.446;6.528;2022-09-09T03:54:10;2.22;;;0.82;;
27857;SDS011;16852;51.446;6.528;2022-09-09T03:56:10;2.38;;;0.77;;
27857;SDS011;16852;51.446;6.528;2022-09-09T03:58:12;3.42;;;0.95;;
27857;SDS011;16852;51.446;6.528;2022-09-09T04:00:16;2.03;;;0.82;;
27857;SDS011;16852;51.446;6.528;2022-09-09T04:02:16;3.45;;;1.02;;
27857;SDS011;16852;51.446;6.528;2022-09-09T04:04:17;6.72;;;1.08;;
27857;SDS011;16852;51.446;6.528;2022-09-09T04:06:19;3.88;;;1.17;;
27857;SDS011;16852;51.446;6.528;2022-09-09T04:08:21;2.85;;;0.90;;
27857;SDS011;16852;51.446;6.528;2022-09-09T04:10:22;1.45;;;0.80;;
27857;SDS011;16852;51.446;6.528;2022-09-09T04:12:23;3.17;;;0.90;;
27857;SDS011;16852;51.446;6.528;2022-09-09T04:14:23;2.63;;;0.90;;
27857;SDS011;16852;51.446;6.528;2022-09-09T04:16:28;7.63;;;1.38;;
27857;SDS011;16852;51.446;6.528;2022-09-09T04:18:29;1.05;;;0.63;;
27857;SDS011;16852;51.446;6.528;2022-09-09T04:20:30;3.58;;;1.17;;
27857;SDS011;16852;51.446;6.528;2022-09-09T04:22:30;2.30;;;0.95;;
27857;SDS011;16852;51.446;6.528;2022-09-09T04:24:32;5.50;;;1.10;;
27857;SDS011;16852;51.446;6.528;2022-09-09T04:26:32;2.55;;;1.20;;
27857;SDS011;16852;51.446;6.528;2022-09-09T04:28:34;5.50;;;1.00;;
27857;SDS011;16852;51.446;6.528;2022-09-09T04:30:35;1.98;;;0.85;;
27857;SDS011;16852;51.446;6.528;2022-09-09T04:32:36;2.88;;;0.98;;
27857;SDS011;16852;51.446;6.528;2022-09-09T04:34:36;3.80;;;1.17;;
27857;SDS011;16852;51.446;6.528;2022-09-09T04:36:37;4.57;;;1.10;;
27857;SDS011;16852;51.446;6.528;2022-09-09T04:38:39;3.38;;;0.93;;
27857;SDS011;16852;51.446;6.528;2022-09-09T04:40:41;2.17;;;0.82;;
27857;SDS011;16852;51.446;6.528;2022-09-09T04:42:49;3.63;;;1.10;;
27857;SDS011;16852;51.446;6.528;2022-09-09T04:44:50;2.75;;;1.00;;
27857;SDS011;16852;51.446;6.528;2022-09-09T04:46:50;2.85;;;0.93;;
27857;SDS011;16852;51.446;6.528;2022-09-09T04:48:52;3.10;;;1.00;;
27857;SDS011;16852;51.446;6.528;2022-09-09T04:50:56;2.95;;;1.30;;
27857;SDS011;16852;51.446;6.528;2022-09-09T04:53:02;4.32;;;0.98;;
27857;SDS011;16852;51.446;6.528;2022-09-09T04:55:03;5.43;;;1.27;;
27857;SDS011;16852;51.446;6.528;2022-09-09T04:57:04;3.38;;;1.15;;
27857;SDS011;16852;51.446;6.528;2022-09-09T04:59:05;4.05;;;1.35;;
27857;SDS011;16852;51.446;6.528;2022-09-09T05:01:06;5.38;;;1.60;;
27857;SDS011;16852;51.446;6.528;2022-09-09T05:03:08;3.45;;;1.40;;
27857;SDS011;16852;51.446;6.528;2022-09-09T05:05:09;3.80;;;1.20;;
27857;SDS011;16852;51.446;6.528;2022-09-09T05:07:11;2.45;;;0.95;;
27857;SDS011;16852;51.446;6.528;2022-09-09T05:09:11;2.45;;;1.02;;
27857;SDS011;16852;51.446;6.528;2022-09-09T05:13:17;2.42;;;1.10;;
27857;SDS011;16852;51.446;6.528;2022-09-09T05:15:17;2.70;;;1.00;;
27857;SDS011;16852;51.446;6.528;2022-09-09T05:17:18;3.55;;;1.13;;
27857;SDS011;16852;51.446;6.528;2022-09-09T05:19:18;8.73;;;1.52;;
27857;SDS011;16852;51.446;6.528;2022-09-09T05:21:21;2.25;;;1.15;;
27857;SDS011;16852;51.446;6.528;2022-09-09T05:23:23;4.45;;;1.38;;
27857;SDS011;16852;51.446;6.528;2022-09-09T05:25:23;2.75;;;0.93;;
27857;SDS011;16852;51.446;6.528;2022-09-09T05:27:25;2.58;;;1.10;;
27857;SDS011;16852;51.446;6.528;2022-09-09T05:29:26;3.10;;;1.10;;
27857;SDS011;16852;51.446;6.528;2022-09-09T05:31:28;3.08;;;1.15;;
27857;SDS011;16852;51.446;6.528;2022-09-09T05:33:30;4.80;;;1.05;;
27857;SDS011;16852;51.446;6.528;2022-09-09T05:35:31;2.50;;;0.95;;
27857;SDS011;16852;51.446;6.528;2022-09-09T05:37:33;2.78;;;1.35;;
27857;SDS011;16852;51.446;6.528;2022-09-09T05:39:34;5.88;;;1.23;;
27857;SDS011;16852;51.446;6.528;2022-09-09T05:41:36;4.03;;;1.37;;
27857;SDS011;16852;51.446;6.528;2022-09-09T05:43:37;7.50;;;1.40;;
27857;SDS011;16852;51.446;6.528;2022-09-09T05:45:38;7.10;;;1.50;;
27857;SDS011;16852;51.446;6.528;2022-09-09T05:47:39;3.13;;;1.40;;
27857;SDS011;16852;51.446;6.528;2022-09-09T05:49:39;4.78;;;1.55;;
27857;SDS011;16852;51.446;6.528;2022-09-09T05:51:40;4.35;;;1.85;;
27857;SDS011;16852;51.446;6.528;2022-09-09T05:53:41;6.20;;;2.15;;
27857;SDS011;16852;51.446;6.528;2022-09-09T05:55:42;5.53;;;2.65;;
27857;SDS011;16852;51.446;6.528;2022-09-09T05:57:47;5.20;;;2.17;;
27857;SDS011;16852;51.446;6.528;2022-09-09T05:59:49;6.35;;;2.40;;
27857;SDS011;16852;51.446;6.528;2022-09-09T06:01:49;7.55;;;2.63;;
27857;SDS011;16852;51.446;6.528;2022-09-09T06:03:50;8.70;;;2.45;;
27857;SDS011;16852;51.446;6.528;2022-09-09T06:05:58;5.00;;;2.20;;
27857;SDS011;16852;51.446;6.528;2022-09-09T06:08:06;5.88;;;1.83;;
27857;SDS011;16852;51.446;6.528;2022-09-09T06:10:07;5.28;;;2.17;;
27857;SDS011;16852;51.446;6.528;2022-09-09T06:12:08;8.43;;;2.00;;
27857;SDS011;16852;51.446;6.528;2022-09-09T06:14:09;4.50;;;1.85;;
27857;SDS011;16852;51.446;6.528;2022-09-09T06:16:10;7.10;;;2.38;;
27857;SDS011;16852;51.446;6.528;2022-09-09T06:20:13;8.10;;;2.67;;
27857;SDS011;16852;51.446;6.528;2022-09-09T06:22:14;5.68;;;2.53;;
27857;SDS011;16852;51.446;6.528;2022-09-09T06:24:14;4.68;;;1.83;;
27857;SDS011;16852;51.446;6.528;2022-09-09T06:26:18;7.05;;;2.67;;
27857;SDS011;16852;51.446;6.528;2022-09-09T06:28:19;8.15;;;2.10;;
27857;SDS011;16852;51.446;6.528;2022-09-09T06:30:19;4.28;;;1.70;;
27857;SDS011;16852;51.446;6.528;2022-09-09T06:32:20;6.93;;;1.98;;
27857;SDS011;16852;51.446;6.528;2022-09-09T06:34:21;4.57;;;1.98;;
27857;SDS011;16852;51.446;6.528;2022-09-09T06:36:31;5.78;;;2.03;;
27857;SDS011;16852;51.446;6.528;2022-09-09T06:38:33;5.30;;;1.95;;
27857;SDS011;16852;51.446;6.528;2022-09-09T06:40:33;6.95;;;2.13;;
27857;SDS011;16852;51.446;6.528;2022-09-09T06:42:35;4.03;;;1.65;;
27857;SDS011;16852;51.446;6.528;2022-09-09T06:44:35;4.00;;;1.40;;
27857;SDS011;16852;51.446;6.528;2022-09-09T06:46:36;4.30;;;1.48;;
27857;SDS011;16852;51.446;6.528;2022-09-09T06:48:41;2.90;;;1.20;;
27857;SDS011;16852;51.446;6.528;2022-09-09T06:50:44;6.63;;;1.67;;
27857;SDS011;16852;51.446;6.528;2022-09-09T06:52:46;5.72;;;1.48;;
27857;SDS011;16852;51.446;6.528;2022-09-09T06:54:47;5.30;;;1.48;;
27857;SDS011;16852;51.446;6.528;2022-09-09T06:56:48;6.07;;;1.65;;
27857;SDS011;16852;51.446;6.528;2022-09-09T06:58:50;3.55;;;1.33;;
27857;SDS011;16852;51.446;6.528;2022-09-09T07:00:52;4.72;;;1.48;;
27857;SDS011;16852;51.446;6.528;2022-09-09T07:02:52;4.30;;;1.38;;
27857;SDS011;16852;51.446;6.528;2022-09-09T07:04:53;4.50;;;1.38;;
27857;SDS011;16852;51.446;6.528;2022-09-09T07:06:53;4.75;;;1.45;;
27857;SDS011;16852;51.446;6.528;2022-09-09T07:08:55;6.35;;;1.63;;
27857;SDS011;16852;51.446;6.528;2022-09-09T07:11:02;4.60;;;1.30;;
27857;SDS011;16852;51.446;6.528;2022-09-09T07:13:07;7.45;;;1.60;;
27857;SDS011;16852;51.446;6.528;2022-09-09T07:15:07;7.47;;;1.50;;
27857;SDS011;16852;51.446;6.528;2022-09-09T07:17:08;5.05;;;1.48;;
27857;SDS011;16852;51.446;6.528;2022-09-09T07:19:09;5.00;;;1.75;;
27857;SDS011;16852;51.446;6.528;2022-09-09T07:21:12;5.88;;;1.55;;
27857;SDS011;16852;51.446;6.528;2022-09-09T07:23:14;7.03;;;1.67;;
27857;SDS011;16852;51.446;6.528;2022-09-09T07:25:14;6.90;;;1.40;;
27857;SDS011;16852;51.446;6.528;2022-09-09T07:27:17;4.10;;;1.08;;
27857;SDS011;16852;51.446;6.528;2022-09-09T07:29:18;5.95;;;1.38;;
27857;SDS011;16852;51.446;6.528;2022-09-09T07:31:23;5.78;;;1.70;;
27857;SDS011;16852;51.446;6.528;2022-09-09T07:33:30;6.72;;;1.63;;
27857;SDS011;16852;51.446;6.528;2022-09-09T07:35:33;4.10;;;0.95;;
27857;SDS011;16852;51.446;6.528;2022-09-09T07:37:35;6.38;;;1.30;;
27857;SDS011;16852;51.446;6.528;2022-09-09T07:39:37;6.57;;;1.25;;
27857;SDS011;16852;51.446;6.528;2022-09-09T07:41:40;6.78;;;1.60;;
27857;SDS011;16852;51.446;6.528;2022-09-09T07:43:42;3.50;;;1.10;;
27857;SDS011;16852;51.446;6.528;2022-09-09T07:45:44;6.50;;;1.52;;
27857;SDS011;16852;51.446;6.528;2022-09-09T07:47:44;6.93;;;1.70;;
27857;SDS011;16852;51.446;6.528;2022-09-09T07:49:45;7.22;;;1.65;;
27857;SDS011;16852;51.446;6.528;2022-09-09T07:51:46;6.97;;;1.20;;
27857;SDS011;16852;51.446;6.528;2022-09-09T07:53:48;5.57;;;1.38;;
27857;SDS011;16852;51.446;6.528;2022-09-09T07:55:52;5.78;;;1.40;;
27857;SDS011;16852;51.446;6.528;2022-09-09T07:57:53;6.32;;;1.70;;
27857;SDS011;16852;51.446;6.528;2022-09-09T07:59:56;5.63;;;1.52;;
27857;SDS011;16852;51.446;6.528;2022-09-09T08:01:57;6.75;;;1.58;;
27857;SDS011;16852;51.446;6.528;2022-09-09T08:03:59;5.55;;;1.58;;
27857;SDS011;16852;51.446;6.528;2022-09-09T08:06:02;5.65;;;1.40;;
27857;SDS011;16852;51.446;6.528;2022-09-09T08:08:08;7.97;;;1.85;;
27857;SDS011;16852;51.446;6.528;2022-09-09T08:10:09;5.63;;;1.55;;
27857;SDS011;16852;51.446;6.528;2022-09-09T08:12:09;5.30;;;1.55;;
27857;SDS011;16852;51.446;6.528;2022-09-09T08:14:10;7.10;;;1.45;;
27857;SDS011;16852;51.446;6.528;2022-09-09T08:16:13;5.03;;;1.35;;
27857;SDS011;16852;51.446;6.528;2022-09-09T08:18:15;2.50;;;1.05;;
27857;SDS011;16852;51.446;6.528;2022-09-09T08:20:15;5.53;;;1.30;;
27857;SDS011;16852;51.446;6.528;2022-09-09T08:22:16;4.85;;;1.67;;
27857;SDS011;16852;51.446;6.528;2022-09-09T08:24:16;6.80;;;1.67;;
27857;SDS011;16852;51.446;6.528;2022-09-09T08:26:20;5.50;;;1.52;;
27857;SDS011;16852;51.446;6.528;2022-09-09T08:28:23;4.72;;;1.60;;
27857;SDS011;16852;51.446;6.528;2022-09-09T08:30:23;4.93;;;1.13;;
27857;SDS011;16852;51.446;6.528;2022-09-09T08:32:24;4.05;;;1.38;;
27857;SDS011;16852;51.446;6.528;2022-09-09T08:34:26;4.45;;;1.42;;
27857;SDS011;16852;51.446;6.528;2022-09-09T08:36:28;3.05;;;1.00;;
27857;SDS011;16852;51.446;6.528;2022-09-09T08:38:30;3.28;;;1.10;;
27857;SDS011;16852;51.446;6.528;2022-09-09T08:40:32;5.25;;;1.20;;
27857;SDS011;16852;51.446;6.528;2022-09-09T08:42:45;6.82;;;1.42;;
27857;SDS011;16852;51.446;6.528;2022-09-09T08:49:58;5.32;;;1.35;;
27857;SDS011;16852;51.446;6.528;2022-09-09T08:52:21;5.90;;;1.40;;
27857;SDS011;16852;51.446;6.528;2022-09-09T08:54:30;6.10;;;1.67;;
27857;SDS011;16852;51.446;6.528;2022-09-09T08:56:35;5.90;;;1.50;;
27857;SDS011;16852;51.446;6.528;2022-09-09T08:58:38;3.57;;;1.03;;
27857;SDS011;16852;51.446;6.528;2022-09-09T09:00:54;4.85;;;1.67;;
27857;SDS011;16852;51.446;6.528;2022-09-09T09:03:14;5.43;;;1.48;;
27857;SDS011;16852;51.446;6.528;2022-09-09T09:05:35;2.55;;;1.17;;
27857;SDS011;16852;51.446;6.528;2022-09-09T09:07:49;5.75;;;1.48;;
27857;SDS011;16852;51.446;6.528;2022-09-09T09:10:22;4.72;;;1.45;;
27857;SDS011;16852;51.446;6.528;2022-09-09T09:12:44;8.07;;;1.55;;
27857;SDS011;16852;51.446;6.528;2022-09-09T09:14:47;2.78;;;1.02;;
27857;SDS011;16852;51.446;6.528;2022-09-09T09:16:58;4.57;;;1.42;;
27857;SDS011;16852;51.446;6.528;2022-09-09T09:19:33;4.93;;;1.45;;
27857;SDS011;16852;51.446;6.528;2022-09-09T09:21:39;2.33;;;0.88;;
27857;SDS011;16852;51.446;6.528;2022-09-09T09:23:59;3.40;;;0.98;;
27857;SDS011;16852;51.446;6.528;2022-09-09T09:26:00;4.50;;;1.27;;
27857;SDS011;16852;51.446;6.528;2022-09-09T09:28:03;4.38;;;1.58;;
27857;SDS011;16852;51.446;6.528;2022-09-09T09:30:17;3.00;;;0.85;;
27857;SDS011;16852;51.446;6.528;2022-09-09T09:32:20;4.25;;;1.02;;
27857;SDS011;16852;51.446;6.528;2022-09-09T09:34:23;8.98;;;2.03;;
27857;SDS011;16852;51.446;6.528;2022-09-09T09:36:34;3.78;;;1.00;;
27857;SDS011;16852;51.446;6.528;2022-09-09T09:38:40;3.10;;;0.90;;
27857;SDS011;16852;51.446;6.528;2022-09-09T09:40:56;3.20;;;0.98;;
27857;SDS011;16852;51.446;6.528;2022-09-09T09:42:59;3.35;;;0.88;;
27857;SDS011;16852;51.446;6.528;2022-09-09T09:47:13;3.05;;;0.98;;
27857;SDS011;16852;51.446;6.528;2022-09-09T09:49:15;5.00;;;1.67;;
27857;SDS011;16852;51.446;6.528;2022-09-09T09:51:17;2.97;;;1.20;;
27857;SDS011;16852;51.446;6.528;2022-09-09T09:53:30;4.13;;;1.27;;
27857;SDS011;16852;51.446;6.528;2022-09-09T09:55:33;3.38;;;1.13;;
27857;SDS011;16852;51.446;6.528;2022-09-09T09:57:35;3.58;;;1.00;;
27857;SDS011;16852;51.446;6.528;2022-09-09T09:59:36;5.32;;;1.33;;
27857;SDS011;16852;51.446;6.528;2022-09-09T10:01:39;4.07;;;1.20;;
27857;SDS011;16852;51.446;6.528;2022-09-09T10:03:40;8.25;;;1.58;;
27857;SDS011;16852;51.446;6.528;2022-09-09T10:05:51;2.60;;;0.80;;
27857;SDS011;16852;51.446;6.528;2022-09-09T10:10:10;5.20;;;1.33;;
27857;SDS011;16852;51.446;6.528;2022-09-09T10:19:33;4.97;;;1.10;;
27857;SDS011;16852;51.446;6.528;2022-09-09T10:26:26;3.25;;;1.05;;
27857;SDS011;16852;51.446;6.528;2022-09-09T10:31:34;4.88;;;1.23;;
27857;SDS011;16852;51.446;6.528;2022-09-09T10:33:41;3.65;;;0.98;;
27857;SDS011;16852;51.446;6.528;2022-09-09T10:46:04;2.92;;;1.10;;
27857;SDS011;16852;51.446;6.528;2022-09-09T10:48:25;3.83;;;1.00;;
27857;SDS011;16852;51.446;6.528;2022-09-09T10:53:49;2.97;;;0.95;;
27857;SDS011;16852;51.446;6.528;2022-09-09T10:55:59;5.82;;;1.38;;
27857;SDS011;16852;51.446;6.528;2022-09-09T10:58:12;3.10;;;0.88;;
27857;SDS011;16852;51.446;6.528;2022-09-09T11:00:19;3.15;;;0.90;;
27857;SDS011;16852;51.446;6.528;2022-09-09T11:02:24;2.40;;;0.80;;
27857;SDS011;16852;51.446;6.528;2022-09-09T11:07:21;4.03;;;1.00;;
27857;SDS011;16852;51.446;6.528;2022-09-09T11:09:30;1.73;;;0.90;;
27857;SDS011;16852;51.446;6.528;2022-09-09T11:11:39;2.85;;;0.90;;
27857;SDS011;16852;51.446;6.528;2022-09-09T11:16:03;3.88;;;1.10;;
27857;SDS011;16852;51.446;6.528;2022-09-09T11:18:21;4.55;;;1.42;;
27857;SDS011;16852;51.446;6.528;2022-09-09T11:20:23;6.22;;;2.67;;
27857;SDS011;16852;51.446;6.528;2022-09-09T11:24:37;4.13;;;1.42;;
27857;SDS011;16852;51.446;6.528;2022-09-09T11:26:44;5.22;;;1.98;;
27857;SDS011;16852;51.446;6.528;2022-09-09T11:38:26;5.65;;;1.33;;
27857;SDS011;16852;51.446;6.528;2022-09-09T11:40:28;3.38;;;0.80;;
27857;SDS011;16852;51.446;6.528;2022-09-09T11:42:32;5.93;;;1.45;;
27857;SDS011;16852;51.446;6.528;2022-09-09T11:44:33;3.67;;;1.05;;
27857;SDS011;16852;51.446;6.528;2022-09-09T11:46:34;2.80;;;0.88;;
27857;SDS011;16852;51.446;6.528;2022-09-09T11:48:42;1.58;;;0.82;;
27857;SDS011;16852;51.446;6.528;2022-09-09T11:50:45;1.83;;;0.70;;
27857;SDS011;16852;51.446;6.528;2022-09-09T11:52:46;11.82;;;0.73;;
27857;SDS011;16852;51.446;6.528;2022-09-09T11:54:48;2.90;;;0.70;;
27857;SDS011;16852;51.446;6.528;2022-09-09T11:56:50;2.03;;;0.60;;
27857;SDS011;16852;51.446;6.528;2022-09-09T11:58:55;1.92;;;0.60;;
27857;SDS011;16852;51.446;6.528;2022-09-09T12:00:56;2.58;;;0.77;;
27857;SDS011;16852;51.446;6.528;2022-09-09T12:02:57;1.00;;;0.47;;
27857;SDS011;16852;51.446;6.528;2022-09-09T12:05:02;1.75;;;0.57;;
27857;SDS011;16852;51.446;6.528;2022-09-09T12:11:25;3.20;;;0.70;;
27857;SDS011;16852;51.446;6.528;2022-09-09T12:13:29;3.92;;;0.93;;
27857;SDS011;16852;51.446;6.528;2022-09-09T12:15:31;3.97;;;0.90;;
27857;SDS011;16852;51.446;6.528;2022-09-09T12:17:36;6.82;;;0.70;;
27857;SDS011;16852;51.446;6.528;2022-09-09T12:19:45;3.13;;;0.80;;
27857;SDS011;16852;51.446;6.528;2022-09-09T12:22:11;2.88;;;0.80;;
27857;SDS011;16852;51.446;6.528;2022-09-09T12:24:34;1.27;;;0.40;;
27857;SDS011;16852;51.446;6.528;2022-09-09T12:29:18;0.90;;;0.40;;
27857;SDS011;16852;51.446;6.528;2022-09-09T12:31:17;2.38;;;0.88;;
27857;SDS011;16852;51.446;6.528;2022-09-09T12:33:32;2.85;;;0.90;;
27857;SDS011;16852;51.446;6.528;2022-09-09T12:35:35;3.13;;;0.73;;
27857;SDS011;16852;51.446;6.528;2022-09-09T12:37:42;2.83;;;0.65;;
27857;SDS011;16852;51.446;6.528;2022-09-09T12:39:57;3.95;;;0.90;;
27857;SDS011;16852;51.446;6.528;2022-09-09T12:42:00;3.25;;;1.00;;
27857;SDS011;16852;51.446;6.528;2022-09-09T12:44:05;3.88;;;1.00;;
27857;SDS011;16852;51.446;6.528;2022-09-09T12:46:11;3.88;;;0.98;;
27857;SDS011;16852;51.446;6.528;2022-09-09T12:48:38;3.08;;;1.02;;
27857;SDS011;16852;51.446;6.528;2022-09-09T12:50:45;4.50;;;1.02;;
27857;SDS011;16852;51.446;6.528;2022-09-09T12:52:49;1.55;;;0.80;;
27857;SDS011;16852;51.446;6.528;2022-09-09T12:54:53;3.95;;;1.20;;
27857;SDS011;16852;51.446;6.528;2022-09-09T12:56:54;3.88;;;1.08;;
27857;SDS011;16852;51.446;6.528;2022-09-09T12:58:56;2.70;;;0.73;;
27857;SDS011;16852;51.446;6.528;2022-09-09T13:00:58;3.10;;;0.70;;
27857;SDS011;16852;51.446;6.528;2022-09-09T13:03:00;2.47;;;1.27;;
27857;SDS011;16852;51.446;6.528;2022-09-09T13:05:26;3.80;;;1.00;;
27857;SDS011;16852;51.446;6.528;2022-09-09T13:07:38;3.00;;;1.30;;
27857;SDS011;16852;51.446;6.528;2022-09-09T13:09:39;2.58;;;1.08;;
27857;SDS011;16852;51.446;6.528;2022-09-09T13:11:43;5.13;;;1.35;;
27857;SDS011;16852;51.446;6.528;2022-09-09T13:13:51;2.55;;;0.95;;
27857;SDS011;16852;51.446;6.528;2022-09-09T13:15:54;4.10;;;1.33;;
27857;SDS011;16852;51.446;6.528;2022-09-09T13:17:58;4.80;;;1.00;;
27857;SDS011;16852;51.446;6.528;2022-09-09T13:20:03;3.00;;;0.93;;
27857;SDS011;16852;51.446;6.528;2022-09-09T13:22:12;3.00;;;1.00;;
27857;SDS011;16852;51.446;6.528;2022-09-09T13:26:32;2.13;;;0.75;;
27857;SDS011;16852;51.446;6.528;2022-09-09T13:28:34;2.55;;;1.00;;
27857;SDS011;16852;51.446;6.528;2022-09-09T13:30:36;2.25;;;1.10;;
27857;SDS011;16852;51.446;6.528;2022-09-09T13:32:40;3.47;;;1.17;;
27857;SDS011;16852;51.446;6.528;2022-09-09T13:34:49;2.78;;;1.10;;
27857;SDS011;16852;51.446;6.528;2022-09-09T13:36:56;4.07;;;1.10;;
27857;SDS011;16852;51.446;6.528;2022-09-09T13:41:19;3.60;;;0.98;;
27857;SDS011;16852;51.446;6.528;2022-09-09T13:43:22;4.40;;;1.30;;
27857;SDS011;16852;51.446;6.528;2022-09-09T13:45:25;5.35;;;1.35;;
27857;SDS011;16852;51.446;6.528;2022-09-09T13:49:34;2.95;;;1.15;;
27857;SDS011;16852;51.446;6.528;2022-09-09T13:51:42;2.50;;;0.93;;
27857;SDS011;16852;51.446;6.528;2022-09-09T13:53:46;3.67;;;0.93;;
27857;SDS011;16852;51.446;6.528;2022-09-09T13:55:47;4.38;;;1.27;;
27857;SDS011;16852;51.446;6.528;2022-09-09T14:00:02;1.73;;;0.65;;
27857;SDS011;16852;51.446;6.528;2022-09-09T14:02:03;2.08;;;0.90;;
27857;SDS011;16852;51.446;6.528;2022-09-09T14:04:04;2.17;;;0.60;;
27857;SDS011;16852;51.446;6.528;2022-09-09T14:06:06;2.05;;;0.65;;
27857;SDS011;16852;51.446;6.528;2022-09-09T14:08:07;1.85;;;0.63;;
27857;SDS011;16852;51.446;6.528;2022-09-09T14:10:21;1.73;;;0.45;;
27857;SDS011;16852;51.446;6.528;2022-09-09T14:12:22;6.63;;;1.02;;
27857;SDS011;16852;51.446;6.528;2022-09-09T14:14:23;8.50;;;1.52;;
27857;SDS011;16852;51.446;6.528;2022-09-09T14:16:25;4.60;;;1.40;;
27857;SDS011;16852;51.446;6.528;2022-09-09T14:18:27;8.65;;;1.55;;
27857;SDS011;16852;51.446;6.528;2022-09-09T14:20:29;3.75;;;0.90;;
27857;SDS011;16852;51.446;6.528;2022-09-09T14:22:29;7.00;;;1.45;;
27857;SDS011;16852;51.446;6.528;2022-09-09T14:24:30;6.28;;;1.65;;
27857;SDS011;16852;51.446;6.528;2022-09-09T14:26:31;6.53;;;1.55;;
27857;SDS011;16852;51.446;6.528;2022-09-09T14:28:32;5.47;;;1.08;;